Terminal Aerodrome Forecast
Issued by NWS Austin/San Antonio, TX

Home | Current Version | Previous Version | Text Only | Print | Product List | Glossary On
Versions: 1 2 3 4 5 6 7 8 9 10 11 12 13 14 15 16 17 18 19 20 21 22 23
144
FTUS44 KEWX 190712 AAA
TAFSAT
TAF AMD
KSAT 190712Z 1907/2012 15011KT P6SM OVC015
     FM190800 16011KT 6SM BR OVC007
     FM191500 17012KT P6SM BKN007
     FM191700 16018KT P6SM BKN015
     FM192300 14014KT P6SM BKN040
     FM200300 15011KT 5SM BR OVC010=

USA.gov is the U.S. government's official web portal to all federal, state and local government web resources and services.